sensor_id;sensor_type;location;lat;lon;timestamp;pressure;altitude;pressure_sealevel;temperature;humidity
5872;BME280;2962;51.312;7.378;2022-08-23T00:01:15;97297.28;;;19.67;100.00
5872;BME280;2962;51.312;7.378;2022-08-23T00:03:41;97297.97;;;19.71;100.00
5872;BME280;2962;51.312;7.378;2022-08-23T00:06:08;97296.34;;;19.73;100.00
5872;BME280;2962;51.312;7.378;2022-08-23T00:08:34;97299.56;;;19.72;100.00
5872;BME280;2962;51.312;7.378;2022-08-23T00:10:59;97295.38;;;19.64;100.00
5872;BME280;2962;51.312;7.378;2022-08-23T00:13:25;97297.44;;;19.60;100.00
5872;BME280;2962;51.312;7.378;2022-08-23T00:15:50;97295.28;;;19.51;100.00
5872;BME280;2962;51.312;7.378;2022-08-23T00:18:16;97297.44;;;19.43;100.00
5872;BME280;2962;51.312;7.378;2022-08-23T00:20:42;97300.19;;;19.43;100.00
5872;BME280;2962;51.312;7.378;2022-08-23T00:23:08;97295.97;;;19.39;100.00
5872;BME280;2962;51.312;7.378;2022-08-23T00:25:33;97295.69;;;19.33;100.00
5872;BME280;2962;51.312;7.378;2022-08-23T00:27:59;97295.00;;;19.29;100.00
5872;BME280;2962;51.312;7.378;2022-08-23T00:30:24;97295.59;;;19.20;100.00
5872;BME280;2962;51.312;7.378;2022-08-23T00:32:49;97290.66;;;19.12;100.00
5872;BME280;2962;51.312;7.378;2022-08-23T00:35:15;97293.94;;;19.07;100.00
5872;BME280;2962;51.312;7.378;2022-08-23T00:37:41;97294.78;;;19.03;100.00
5872;BME280;2962;51.312;7.378;2022-08-23T00:40:10;97286.59;;;19.00;100.00
5872;BME280;2962;51.312;7.378;2022-08-23T00:42:42;97284.69;;;18.97;100.00
5872;BME280;2962;51.312;7.378;2022-08-23T00:45:38;97286.84;;;19.06;100.00
5872;BME280;2962;51.312;7.378;2022-08-23T00:48:24;97279.53;;;19.15;100.00
5872;BME280;2962;51.312;7.378;2022-08-23T00:51:26;97282.22;;;19.19;100.00
5872;BME280;2962;51.312;7.378;2022-08-23T00:53:58;97276.19;;;19.24;100.00
5872;BME280;2962;51.312;7.378;2022-08-23T00:56:27;97281.63;;;19.27;100.00
5872;BME280;2962;51.312;7.378;2022-08-23T00:58:54;97271.88;;;19.23;100.00
5872;BME280;2962;51.312;7.378;2022-08-23T01:01:19;97273.78;;;19.26;100.00
5872;BME280;2962;51.312;7.378;2022-08-23T01:03:49;97284.47;;;19.24;100.00
5872;BME280;2962;51.312;7.378;2022-08-23T01:06:23;97281.00;;;19.20;100.00
5872;BME280;2962;51.312;7.378;2022-08-23T01:08:54;97283.31;;;19.21;100.00
5872;BME280;2962;51.312;7.378;2022-08-23T01:14:05;97291.69;;;19.18;100.00
5872;BME280;2962;51.312;7.378;2022-08-23T01:16:51;97272.53;;;19.11;100.00
5872;BME280;2962;51.312;7.378;2022-08-23T01:19:36;97278.00;;;19.14;100.00
5872;BME280;2962;51.312;7.378;2022-08-23T01:22:19;97282.91;;;19.07;100.00
5872;BME280;2962;51.312;7.378;2022-08-23T01:24:48;97285.66;;;19.07;100.00
5872;BME280;2962;51.312;7.378;2022-08-23T01:27:14;97294.78;;;19.03;100.00
5872;BME280;2962;51.312;7.378;2022-08-23T01:29:40;97281.06;;;19.00;100.00
5872;BME280;2962;51.312;7.378;2022-08-23T01:32:07;97287.81;;;18.99;100.00
5872;BME280;2962;51.312;7.378;2022-08-23T01:34:33;97294.88;;;19.00;100.00
5872;BME280;2962;51.312;7.378;2022-08-23T01:36:59;97295.38;;;18.95;100.00
5872;BME280;2962;51.312;7.378;2022-08-23T01:39:25;97297.19;;;19.01;100.00
5872;BME280;2962;51.312;7.378;2022-08-23T01:41:51;97292.44;;;19.02;100.00
5872;BME280;2962;51.312;7.378;2022-08-23T01:44:17;97293.31;;;18.99;100.00
5872;BME280;2962;51.312;7.378;2022-08-23T01:46:43;97289.50;;;18.93;100.00
5872;BME280;2962;51.312;7.378;2022-08-23T01:49:10;97287.94;;;18.92;100.00
5872;BME280;2962;51.312;7.378;2022-08-23T01:51:35;97291.19;;;18.87;100.00
5872;BME280;2962;51.312;7.378;2022-08-23T01:54:01;97298.22;;;18.91;100.00
5872;BME280;2962;51.312;7.378;2022-08-23T01:56:28;97303.66;;;18.95;100.00
5872;BME280;2962;51.312;7.378;2022-08-23T01:58:53;97299.25;;;18.97;100.00
5872;BME280;2962;51.312;7.378;2022-08-23T02:01:19;97291.75;;;18.98;100.00
5872;BME280;2962;51.312;7.378;2022-08-23T02:03:44;97293.22;;;19.02;100.00
5872;BME280;2962;51.312;7.378;2022-08-23T02:06:10;97294.88;;;19.00;100.00
5872;BME280;2962;51.312;7.378;2022-08-23T02:08:36;97288.56;;;18.99;100.00
5872;BME280;2962;51.312;7.378;2022-08-23T02:11:22;97301.69;;;18.95;100.00
5872;BME280;2962;51.312;7.378;2022-08-23T02:13:49;97300.97;;;18.91;100.00
5872;BME280;2962;51.312;7.378;2022-08-23T02:16:31;97302.16;;;18.90;100.00
5872;BME280;2962;51.312;7.378;2022-08-23T02:18:58;97299.13;;;18.85;100.00
5872;BME280;2962;51.312;7.378;2022-08-23T02:21:24;97300.63;;;18.89;100.00
5872;BME280;2962;51.312;7.378;2022-08-23T02:23:50;97297.16;;;18.85;100.00
5872;BME280;2962;51.312;7.378;2022-08-23T02:26:16;97296.88;;;18.80;100.00
5872;BME280;2962;51.312;7.378;2022-08-23T02:28:41;97300.75;;;18.82;100.00
5872;BME280;2962;51.312;7.378;2022-08-23T02:31:07;97303.13;;;18.84;100.00
5872;BME280;2962;51.312;7.378;2022-08-23T02:33:32;97306.28;;;18.82;100.00
5872;BME280;2962;51.312;7.378;2022-08-23T02:35:57;97303.81;;;18.88;100.00
5872;BME280;2962;51.312;7.378;2022-08-23T02:38:23;97295.69;;;18.81;100.00
5872;BME280;2962;51.312;7.378;2022-08-23T02:40:48;97301.28;;;18.77;100.00
5872;BME280;2962;51.312;7.378;2022-08-23T02:43:14;97302.47;;;18.76;100.00
5872;BME280;2962;51.312;7.378;2022-08-23T02:45:40;97307.31;;;18.72;100.00
5872;BME280;2962;51.312;7.378;2022-08-23T02:48:05;97308.88;;;18.69;100.00
5872;BME280;2962;51.312;7.378;2022-08-23T02:50:32;97309.81;;;18.63;100.00
5872;BME280;2962;51.312;7.378;2022-08-23T02:52:57;97321.53;;;18.67;100.00
5872;BME280;2962;51.312;7.378;2022-08-23T02:55:23;97316.47;;;18.65;100.00
5872;BME280;2962;51.312;7.378;2022-08-23T02:57:49;97320.84;;;18.63;100.00
5872;BME280;2962;51.312;7.378;2022-08-23T03:00:16;97306.00;;;18.57;100.00
5872;BME280;2962;51.312;7.378;2022-08-23T03:02:41;97312.34;;;18.53;100.00
5872;BME280;2962;51.312;7.378;2022-08-23T03:05:08;97318.16;;;18.59;100.00
5872;BME280;2962;51.312;7.378;2022-08-23T03:07:33;97323.66;;;18.59;100.00
5872;BME280;2962;51.312;7.378;2022-08-23T03:09:59;97320.19;;;18.55;100.00
5872;BME280;2962;51.312;7.378;2022-08-23T03:12:24;97315.38;;;18.59;100.00
5872;BME280;2962;51.312;7.378;2022-08-23T03:14:51;97320.63;;;18.53;100.00
5872;BME280;2962;51.312;7.378;2022-08-23T03:17:17;97310.44;;;18.50;100.00
5872;BME280;2962;51.312;7.378;2022-08-23T03:19:42;97318.72;;;18.50;100.00
5872;BME280;2962;51.312;7.378;2022-08-23T03:22:08;97316.09;;;18.43;100.00
5872;BME280;2962;51.312;7.378;2022-08-23T03:24:33;97319.75;;;18.37;100.00
5872;BME280;2962;51.312;7.378;2022-08-23T03:26:59;97309.41;;;18.21;100.00
5872;BME280;2962;51.312;7.378;2022-08-23T03:29:24;97322.09;;;18.18;100.00
5872;BME280;2962;51.312;7.378;2022-08-23T03:31:49;97318.13;;;18.19;100.00
5872;BME280;2962;51.312;7.378;2022-08-23T03:34:16;97316.38;;;18.05;100.00
5872;BME280;2962;51.312;7.378;2022-08-23T03:36:41;97323.47;;;18.07;100.00
5872;BME280;2962;51.312;7.378;2022-08-23T03:39:08;97316.09;;;18.00;100.00
5872;BME280;2962;51.312;7.378;2022-08-23T03:41:33;97318.88;;;18.00;100.00
5872;BME280;2962;51.312;7.378;2022-08-23T03:43:58;97326.81;;;17.94;100.00
5872;BME280;2962;51.312;7.378;2022-08-23T03:46:23;97324.50;;;17.93;100.00
5872;BME280;2962;51.312;7.378;2022-08-23T03:48:54;97315.72;;;17.98;100.00
5872;BME280;2962;51.312;7.378;2022-08-23T03:51:21;97319.25;;;17.98;100.00
5872;BME280;2962;51.312;7.378;2022-08-23T03:53:47;97312.69;;;17.92;100.00
5872;BME280;2962;51.312;7.378;2022-08-23T03:56:26;97325.22;;;17.97;100.00
5872;BME280;2962;51.312;7.378;2022-08-23T03:58:53;97322.56;;;17.90;100.00
5872;BME280;2962;51.312;7.378;2022-08-23T04:01:18;97327.25;;;17.93;100.00
5872;BME280;2962;51.312;7.378;2022-08-23T04:03:44;97337.56;;;17.89;100.00
5872;BME280;2962;51.312;7.378;2022-08-23T04:06:11;97334.81;;;17.89;100.00
5872;BME280;2962;51.312;7.378;2022-08-23T04:08:37;97334.97;;;17.78;100.00
5872;BME280;2962;51.312;7.378;2022-08-23T04:11:03;97344.38;;;17.80;100.00
5872;BME280;2962;51.312;7.378;2022-08-23T04:13:28;97340.38;;;17.85;100.00
5872;BME280;2962;51.312;7.378;2022-08-23T04:15:55;97336.53;;;17.79;100.00
5872;BME280;2962;51.312;7.378;2022-08-23T04:18:21;97347.16;;;17.80;100.00
5872;BME280;2962;51.312;7.378;2022-08-23T04:20:47;97346.38;;;17.80;100.00
5872;BME280;2962;51.312;7.378;2022-08-23T04:23:13;97353.84;;;17.79;100.00
5872;BME280;2962;51.312;7.378;2022-08-23T04:25:38;97360.28;;;17.69;100.00
5872;BME280;2962;51.312;7.378;2022-08-23T04:28:04;97362.38;;;17.62;100.00
5872;BME280;2962;51.312;7.378;2022-08-23T04:30:31;97368.28;;;17.60;100.00
5872;BME280;2962;51.312;7.378;2022-08-23T04:32:57;97363.16;;;17.62;100.00
5872;BME280;2962;51.312;7.378;2022-08-23T04:35:23;97372.56;;;17.65;100.00
5872;BME280;2962;51.312;7.378;2022-08-23T04:37:49;97361.16;;;17.63;100.00
5872;BME280;2962;51.312;7.378;2022-08-23T04:40:15;97367.97;;;17.54;100.00
5872;BME280;2962;51.312;7.378;2022-08-23T04:42:59;97367.56;;;17.56;100.00
5872;BME280;2962;51.312;7.378;2022-08-23T04:45:25;97377.78;;;17.55;100.00
5872;BME280;2962;51.312;7.378;2022-08-23T04:47:51;97375.00;;;17.59;100.00
5872;BME280;2962;51.312;7.378;2022-08-23T04:50:16;97380.41;;;17.66;100.00
5872;BME280;2962;51.312;7.378;2022-08-23T04:52:42;97379.91;;;17.75;100.00
5872;BME280;2962;51.312;7.378;2022-08-23T04:55:07;97390.09;;;17.78;100.00
5872;BME280;2962;51.312;7.378;2022-08-23T04:57:33;97384.56;;;17.78;100.00
5872;BME280;2962;51.312;7.378;2022-08-23T04:59:59;97388.53;;;17.77;100.00
5872;BME280;2962;51.312;7.378;2022-08-23T05:02:24;97392.09;;;17.74;100.00
5872;BME280;2962;51.312;7.378;2022-08-23T05:04:49;97393.28;;;17.73;100.00
5872;BME280;2962;51.312;7.378;2022-08-23T05:07:15;97392.50;;;17.76;100.00
5872;BME280;2962;51.312;7.378;2022-08-23T05:09:40;97395.97;;;17.80;100.00
5872;BME280;2962;51.312;7.378;2022-08-23T05:12:06;97401.06;;;17.81;100.00
5872;BME280;2962;51.312;7.378;2022-08-23T05:14:31;97400.13;;;17.92;100.00
5872;BME280;2962;51.312;7.378;2022-08-23T05:16:56;97394.22;;;17.90;100.00
5872;BME280;2962;51.312;7.378;2022-08-23T05:19:22;97399.25;;;17.95;100.00
5872;BME280;2962;51.312;7.378;2022-08-23T05:21:48;97403.88;;;18.01;100.00
5872;BME280;2962;51.312;7.378;2022-08-23T05:24:13;97405.44;;;18.02;100.00
5872;BME280;2962;51.312;7.378;2022-08-23T05:26:38;97401.06;;;18.05;100.00
5872;BME280;2962;51.312;7.378;2022-08-23T05:29:04;97407.75;;;18.08;100.00
5872;BME280;2962;51.312;7.378;2022-08-23T05:31:29;97411.56;;;18.14;100.00
5872;BME280;2962;51.312;7.378;2022-08-23T05:33:55;97417.06;;;18.14;100.00
5872;BME280;2962;51.312;7.378;2022-08-23T05:36:21;97410.91;;;18.06;100.00
5872;BME280;2962;51.312;7.378;2022-08-23T05:38:47;97415.91;;;18.15;100.00
5872;BME280;2962;51.312;7.378;2022-08-23T05:41:14;97417.44;;;18.16;100.00
5872;BME280;2962;51.312;7.378;2022-08-23T05:43:39;97415.91;;;18.15;100.00
5872;BME280;2962;51.312;7.378;2022-08-23T05:46:10;97421.75;;;18.17;100.00
5872;BME280;2962;51.312;7.378;2022-08-23T05:48:37;97430.75;;;18.21;100.00
5872;BME280;2962;51.312;7.378;2022-08-23T05:53:40;97429.69;;;18.15;100.00
5872;BME280;2962;51.312;7.378;2022-08-23T05:56:29;97431.97;;;18.20;100.00
5872;BME280;2962;51.312;7.378;2022-08-23T05:58:57;97429.91;;;18.24;100.00
5872;BME280;2962;51.312;7.378;2022-08-23T06:01:23;97431.47;;;18.25;100.00
5872;BME280;2962;51.312;7.378;2022-08-23T06:03:49;97434.94;;;18.29;100.00
5872;BME280;2962;51.312;7.378;2022-08-23T06:06:16;97438.84;;;18.32;100.00
5872;BME280;2962;51.312;7.378;2022-08-23T06:08:42;97434.38;;;18.41;100.00
5872;BME280;2962;51.312;7.378;2022-08-23T06:11:17;97440.94;;;18.47;100.00
5872;BME280;2962;51.312;7.378;2022-08-23T06:13:46;97436.97;;;18.48;100.00
5872;BME280;2962;51.312;7.378;2022-08-23T06:16:13;97441.25;;;18.53;100.00
5872;BME280;2962;51.312;7.378;2022-08-23T06:18:39;97438.44;;;18.57;100.00
5872;BME280;2962;51.312;7.378;2022-08-23T06:21:07;97448.09;;;18.68;100.00
5872;BME280;2962;51.312;7.378;2022-08-23T06:23:33;97440.56;;;18.69;100.00
5872;BME280;2962;51.312;7.378;2022-08-23T06:25:59;97442.03;;;18.77;100.00
5872;BME280;2962;51.312;7.378;2022-08-23T06:28:28;97451.78;;;18.82;100.00
5872;BME280;2962;51.312;7.378;2022-08-23T06:30:56;97445.84;;;18.83;100.00
5872;BME280;2962;51.312;7.378;2022-08-23T06:33:22;97445.06;;;18.83;100.00
5872;BME280;2962;51.312;7.378;2022-08-23T06:35:48;97450.25;;;19.00;100.00
5872;BME280;2962;51.312;7.378;2022-08-23T06:38:15;97450.06;;;19.11;100.00
5872;BME280;2962;51.312;7.378;2022-08-23T06:40:41;97455.44;;;19.18;100.00
5872;BME280;2962;51.312;7.378;2022-08-23T06:43:06;97453.66;;;19.28;100.00
5872;BME280;2962;51.312;7.378;2022-08-23T06:45:32;97450.25;;;19.40;100.00
5872;BME280;2962;51.312;7.378;2022-08-23T06:47:58;97443.00;;;19.46;100.00
5872;BME280;2962;51.312;7.378;2022-08-23T06:50:23;97453.38;;;19.62;100.00
5872;BME280;2962;51.312;7.378;2022-08-23T06:52:49;97452.63;;;19.78;100.00
5872;BME280;2962;51.312;7.378;2022-08-23T06:55:15;97454.00;;;19.86;100.00
5872;BME280;2962;51.312;7.378;2022-08-23T06:57:40;97443.72;;;19.87;100.00
5872;BME280;2962;51.312;7.378;2022-08-23T07:00:06;97444.00;;;20.09;100.00
5872;BME280;2962;51.312;7.378;2022-08-23T07:02:32;97453.97;;;20.22;100.00
5872;BME280;2962;51.312;7.378;2022-08-23T07:04:58;97452.66;;;20.27;100.00
5872;BME280;2962;51.312;7.378;2022-08-23T07:07:24;97453.88;;;20.42;100.00
5872;BME280;2962;51.312;7.378;2022-08-23T07:09:49;97455.97;;;20.55;100.00
5872;BME280;2962;51.312;7.378;2022-08-23T07:12:15;97461.94;;;20.53;100.00
5872;BME280;2962;51.312;7.378;2022-08-23T07:14:41;97460.78;;;20.67;100.00
5872;BME280;2962;51.312;7.378;2022-08-23T07:17:07;97465.22;;;20.93;100.00
5872;BME280;2962;51.312;7.378;2022-08-23T07:19:34;97461.31;;;21.07;100.00
5872;BME280;2962;51.312;7.378;2022-08-23T07:22:02;97470.50;;;21.17;100.00
5872;BME280;2962;51.312;7.378;2022-08-23T07:24:28;97462.25;;;21.30;100.00
5872;BME280;2962;51.312;7.378;2022-08-23T07:26:54;97473.88;;;21.54;100.00
5872;BME280;2962;51.312;7.378;2022-08-23T07:29:21;97470.34;;;21.66;100.00
5872;BME280;2962;51.312;7.378;2022-08-23T07:31:52;97472.47;;;21.87;100.00
5872;BME280;2962;51.312;7.378;2022-08-23T07:34:18;97476.44;;;21.86;100.00
5872;BME280;2962;51.312;7.378;2022-08-23T07:36:46;97476.44;;;21.86;100.00
5872;BME280;2962;51.312;7.378;2022-08-23T07:39:13;97478.56;;;21.82;100.00
5872;BME280;2962;51.312;7.378;2022-08-23T07:41:39;97477.13;;;21.78;100.00
5872;BME280;2962;51.312;7.378;2022-08-23T07:44:06;97483.13;;;21.89;100.00
5872;BME280;2962;51.312;7.378;2022-08-23T07:46:34;97482.91;;;21.96;100.00
5872;BME280;2962;51.312;7.378;2022-08-23T07:49:00;97480.38;;;22.27;100.00
5872;BME280;2962;51.312;7.378;2022-08-23T07:51:28;97480.69;;;22.42;100.00
5872;BME280;2962;51.312;7.378;2022-08-23T07:53:54;97495.84;;;22.63;100.00
5872;BME280;2962;51.312;7.378;2022-08-23T07:56:20;97487.53;;;22.63;100.00
5872;BME280;2962;51.312;7.378;2022-08-23T07:58:46;97492.00;;;22.60;100.00
5872;BME280;2962;51.312;7.378;2022-08-23T08:01:15;97494.97;;;22.66;100.00
5872;BME280;2962;51.312;7.378;2022-08-23T08:03:46;97496.84;;;22.69;100.00
5872;BME280;2962;51.312;7.378;2022-08-23T08:06:14;97505.69;;;22.89;100.00
5872;BME280;2962;51.312;7.378;2022-08-23T08:08:41;97496.19;;;23.12;100.00
5872;BME280;2962;51.312;7.378;2022-08-23T08:11:08;97494.81;;;22.95;100.00
5872;BME280;2962;51.312;7.378;2022-08-23T08:13:39;97492.00;;;23.30;100.00
5872;BME280;2962;51.312;7.378;2022-08-23T08:16:05;97502.16;;;23.46;100.00
5872;BME280;2962;51.312;7.378;2022-08-23T08:18:31;97497.69;;;23.70;100.00
5872;BME280;2962;51.312;7.378;2022-08-23T08:20:56;97505.63;;;23.81;98.19
5872;BME280;2962;51.312;7.378;2022-08-23T08:23:22;97507.28;;;23.69;99.23
5872;BME280;2962;51.312;7.378;2022-08-23T08:25:47;97511.97;;;23.81;98.79
5872;BME280;2962;51.312;7.378;2022-08-23T08:28:13;97510.66;;;23.95;98.91
5872;BME280;2962;51.312;7.378;2022-08-23T08:30:38;97508.63;;;24.27;93.20
5872;BME280;2962;51.312;7.378;2022-08-23T08:33:04;97506.13;;;24.20;96.77
5872;BME280;2962;51.312;7.378;2022-08-23T08:35:29;97516.78;;;24.21;95.71
5872;BME280;2962;51.312;7.378;2022-08-23T08:37:54;97507.22;;;24.22;94.36
5872;BME280;2962;51.312;7.378;2022-08-23T08:40:27;97513.53;;;24.45;94.22
5872;BME280;2962;51.312;7.378;2022-08-23T08:43:19;97514.50;;;24.60;92.08
5872;BME280;2962;51.312;7.378;2022-08-23T08:48:23;97514.03;;;24.71;88.64
5872;BME280;2962;51.312;7.378;2022-08-23T08:51:02;97500.59;;;24.97;87.15
5872;BME280;2962;51.312;7.378;2022-08-23T08:53:39;97504.00;;;25.01;87.40
5872;BME280;2962;51.312;7.378;2022-08-23T08:56:18;97503.06;;;24.85;88.20
5872;BME280;2962;51.312;7.378;2022-08-23T08:58:51;97508.47;;;24.71;88.66
5872;BME280;2962;51.312;7.378;2022-08-23T09:01:18;97518.56;;;24.96;86.31
5872;BME280;2962;51.312;7.378;2022-08-23T09:03:44;97510.19;;;25.05;85.11
5872;BME280;2962;51.312;7.378;2022-08-23T09:06:19;97516.13;;;25.16;82.31
5872;BME280;2962;51.312;7.378;2022-08-23T09:18:58;97518.41;;;26.24;72.75
5872;BME280;2962;51.312;7.378;2022-08-23T09:21:26;97507.09;;;26.61;69.61
5872;BME280;2962;51.312;7.378;2022-08-23T09:23:52;97515.22;;;26.50;69.22
5872;BME280;2962;51.312;7.378;2022-08-23T09:26:29;97516.25;;;26.62;68.80
5872;BME280;2962;51.312;7.378;2022-08-23T09:29:06;97515.84;;;26.78;68.44
5872;BME280;2962;51.312;7.378;2022-08-23T09:31:52;97523.38;;;26.87;66.36
5872;BME280;2962;51.312;7.378;2022-08-23T09:34:37;97527.50;;;27.00;64.84
5872;BME280;2962;51.312;7.378;2022-08-23T09:39:40;97521.19;;;26.67;66.46
5872;BME280;2962;51.312;7.378;2022-08-23T09:42:32;97513.69;;;26.40;67.69
5872;BME280;2962;51.312;7.378;2022-08-23T09:44:59;97517.84;;;26.53;68.55
5872;BME280;2962;51.312;7.378;2022-08-23T09:47:36;97512.69;;;26.85;68.27
5872;BME280;2962;51.312;7.378;2022-08-23T09:50:24;97511.75;;;26.88;66.97
5872;BME280;2962;51.312;7.378;2022-08-23T09:53:22;97517.66;;;27.05;67.19
5872;BME280;2962;51.312;7.378;2022-08-23T09:55:52;97511.53;;;27.69;63.40
5872;BME280;2962;51.312;7.378;2022-08-23T09:58:35;97504.34;;;27.92;61.69
5872;BME280;2962;51.312;7.378;2022-08-23T10:03:41;97526.53;;;28.26;57.83
5872;BME280;2962;51.312;7.378;2022-08-23T10:06:08;97519.31;;;28.54;55.39
5872;BME280;2962;51.312;7.378;2022-08-23T10:08:37;97518.31;;;28.07;58.35
5872;BME280;2962;51.312;7.378;2022-08-23T10:13:38;97511.88;;;28.51;55.94
5872;BME280;2962;51.312;7.378;2022-08-23T10:24:29;97513.31;;;28.61;52.54
5872;BME280;2962;51.312;7.378;2022-08-23T10:30:02;97515.72;;;29.09;52.14
5872;BME280;2962;51.312;7.378;2022-08-23T10:38:06;97510.84;;;29.04;50.27
5872;BME280;2962;51.312;7.378;2022-08-23T10:40:43;97503.09;;;29.92;49.06
5872;BME280;2962;51.312;7.378;2022-08-23T10:43:23;97506.00;;;30.35;48.42
5872;BME280;2962;51.312;7.378;2022-08-23T10:45:52;97502.81;;;30.53;47.07
5872;BME280;2962;51.312;7.378;2022-08-23T10:48:27;97497.94;;;30.91;44.88
5872;BME280;2962;51.312;7.378;2022-08-23T10:50:58;97500.84;;;31.13;42.56
5872;BME280;2962;51.312;7.378;2022-08-23T10:53:52;97502.03;;;30.96;43.30
5872;BME280;2962;51.312;7.378;2022-08-23T10:56:21;97496.25;;;31.27;42.18
5872;BME280;2962;51.312;7.378;2022-08-23T11:04:25;97495.09;;;31.56;38.07
5872;BME280;2962;51.312;7.378;2022-08-23T11:06:53;97488.91;;;31.47;39.01
5872;BME280;2962;51.312;7.378;2022-08-23T11:11:46;97491.75;;;31.52;39.83
5872;BME280;2962;51.312;7.378;2022-08-23T11:14:27;97505.13;;;31.91;39.23
5872;BME280;2962;51.312;7.378;2022-08-23T11:17:10;97497.44;;;32.25;37.03
5872;BME280;2962;51.312;7.378;2022-08-23T11:20:01;97503.03;;;32.65;36.32
5872;BME280;2962;51.312;7.378;2022-08-23T11:22:33;97489.09;;;33.00;34.88
5872;BME280;2962;51.312;7.378;2022-08-23T11:27:43;97499.47;;;32.53;35.07
5872;BME280;2962;51.312;7.378;2022-08-23T11:33:26;97496.44;;;32.06;36.59
5872;BME280;2962;51.312;7.378;2022-08-23T11:41:33;97503.66;;;33.63;33.43
5872;BME280;2962;51.312;7.378;2022-08-23T11:46:31;97499.59;;;33.94;33.04
5872;BME280;2962;51.312;7.378;2022-08-23T12:01:25;97475.84;;;34.63;31.47
5872;BME280;2962;51.312;7.378;2022-08-23T12:08:32;97497.06;;;34.20;31.97
5872;BME280;2962;51.312;7.378;2022-08-23T12:11:07;97494.00;;;33.88;32.50
5872;BME280;2962;51.312;7.378;2022-08-23T12:14:00;97485.94;;;33.68;31.92
5872;BME280;2962;51.312;7.378;2022-08-23T12:16:44;97485.25;;;34.22;31.23
5872;BME280;2962;51.312;7.378;2022-08-23T12:19:18;97477.94;;;33.72;32.08
5872;BME280;2962;51.312;7.378;2022-08-23T12:21:50;97472.44;;;33.44;31.72
5872;BME280;2962;51.312;7.378;2022-08-23T12:24:28;97485.97;;;33.10;32.97
5872;BME280;2962;51.312;7.378;2022-08-23T12:32:21;97488.81;;;33.04;33.30
5872;BME280;2962;51.312;7.378;2022-08-23T12:40:14;97484.88;;;35.29;30.39
5872;BME280;2962;51.312;7.378;2022-08-23T12:42:45;97483.84;;;35.08;30.68
5872;BME280;2962;51.312;7.378;2022-08-23T12:45:15;97487.94;;;34.88;31.08
5872;BME280;2962;51.312;7.378;2022-08-23T12:47:44;97480.28;;;34.28;30.94
5872;BME280;2962;51.312;7.378;2022-08-23T12:50:25;97484.97;;;33.54;32.34
5872;BME280;2962;51.312;7.378;2022-08-23T12:53:00;97492.97;;;34.21;32.15
5872;BME280;2962;51.312;7.378;2022-08-23T12:55:31;97491.47;;;34.15;31.15
5872;BME280;2962;51.312;7.378;2022-08-23T12:57:57;97491.25;;;33.77;31.88
5872;BME280;2962;51.312;7.378;2022-08-23T13:00:28;97486.88;;;33.35;32.02
5872;BME280;2962;51.312;7.378;2022-08-23T13:03:17;97487.47;;;32.02;33.93
5872;BME280;2962;51.312;7.378;2022-08-23T13:06:01;97485.53;;;32.83;33.81
5872;BME280;2962;51.312;7.378;2022-08-23T13:11:04;97486.50;;;34.26;31.28
5872;BME280;2962;51.312;7.378;2022-08-23T13:13:30;97488.28;;;33.64;32.24
5872;BME280;2962;51.312;7.378;2022-08-23T13:15:59;97480.06;;;33.60;32.35
5872;BME280;2962;51.312;7.378;2022-08-23T13:21:29;97483.53;;;35.11;30.35
5872;BME280;2962;51.312;7.378;2022-08-23T13:23:58;97468.28;;;34.95;30.11
5872;BME280;2962;51.312;7.378;2022-08-23T13:29:01;97465.06;;;32.66;32.95
5872;BME280;2962;51.312;7.378;2022-08-23T13:31:47;97483.25;;;31.30;35.22
5872;BME280;2962;51.312;7.378;2022-08-23T13:34:42;97484.56;;;32.69;33.61
5872;BME280;2962;51.312;7.378;2022-08-23T13:37:15;97482.66;;;34.24;31.68
5872;BME280;2962;51.312;7.378;2022-08-23T13:39:44;97426.75;;;35.74;29.92
5872;BME280;2962;51.312;7.378;2022-08-23T13:42:11;97460.56;;;37.50;27.19
5872;BME280;2962;51.312;7.378;2022-08-23T13:44:36;97440.91;;;36.64;26.69
5872;BME280;2962;51.312;7.378;2022-08-23T13:47:02;97470.53;;;36.24;27.83
5872;BME280;2962;51.312;7.378;2022-08-23T13:49:28;97479.28;;;33.95;30.49
5872;BME280;2962;51.312;7.378;2022-08-23T13:54:26;97479.38;;;33.43;32.30
5872;BME280;2962;51.312;7.378;2022-08-23T13:56:55;97477.03;;;33.00;32.26
5872;BME280;2962;51.312;7.378;2022-08-23T14:01:47;97466.44;;;31.64;34.62
5872;BME280;2962;51.312;7.378;2022-08-23T14:04:13;97474.38;;;34.01;31.66
5872;BME280;2962;51.312;7.378;2022-08-23T14:06:38;97472.59;;;34.78;31.11
5872;BME280;2962;51.312;7.378;2022-08-23T14:09:03;97460.34;;;36.02;29.01
5872;BME280;2962;51.312;7.378;2022-08-23T14:11:31;97458.91;;;37.07;28.66
5872;BME280;2962;51.312;7.378;2022-08-23T14:13:56;97485.66;;;37.59;27.65
5872;BME280;2962;51.312;7.378;2022-08-23T14:16:29;97471.16;;;37.83;27.43
5872;BME280;2962;51.312;7.378;2022-08-23T14:18:55;97463.94;;;36.87;28.04
5872;BME280;2962;51.312;7.378;2022-08-23T14:21:20;97465.50;;;37.36;27.83
5872;BME280;2962;51.312;7.378;2022-08-23T14:23:46;97469.06;;;36.49;28.25
5872;BME280;2962;51.312;7.378;2022-08-23T14:26:15;97472.16;;;36.06;28.67
5872;BME280;2962;51.312;7.378;2022-08-23T14:28:42;97466.22;;;38.26;27.43
5872;BME280;2962;51.312;7.378;2022-08-23T14:31:08;97484.78;;;37.98;27.50
5872;BME280;2962;51.312;7.378;2022-08-23T14:33:33;97477.06;;;36.64;27.94
5872;BME280;2962;51.312;7.378;2022-08-23T14:35:58;97482.25;;;35.12;30.25
5872;BME280;2962;51.312;7.378;2022-08-23T14:38:23;97475.44;;;35.02;30.74
5872;BME280;2962;51.312;7.378;2022-08-23T14:40:52;97474.28;;;36.45;28.38
5872;BME280;2962;51.312;7.378;2022-08-23T14:43:19;97475.63;;;38.34;27.69
5872;BME280;2962;51.312;7.378;2022-08-23T14:45:45;97467.59;;;39.93;25.40
5872;BME280;2962;51.312;7.378;2022-08-23T14:48:11;97468.78;;;40.59;24.76
5872;BME280;2962;51.312;7.378;2022-08-23T14:50:38;97483.59;;;38.35;26.11
5872;BME280;2962;51.312;7.378;2022-08-23T14:53:04;97478.75;;;38.51;25.98
5872;BME280;2962;51.312;7.378;2022-08-23T14:55:30;97481.38;;;37.45;27.42
5872;BME280;2962;51.312;7.378;2022-08-23T14:57:55;97482.06;;;37.11;27.73
5872;BME280;2962;51.312;7.378;2022-08-23T15:00:21;97479.91;;;36.64;28.35
5872;BME280;2962;51.312;7.378;2022-08-23T15:02:46;97482.25;;;35.50;29.70
5872;BME280;2962;51.312;7.378;2022-08-23T15:05:13;97482.44;;;33.86;31.91
5872;BME280;2962;51.312;7.378;2022-08-23T15:07:39;97475.66;;;32.43;34.09
5872;BME280;2962;51.312;7.378;2022-08-23T15:10:05;97477.69;;;32.53;34.11